sensor_id;sensor_type;location;lat;lon;timestamp;temperature;humidity
14517;DHT22;7344;50.864;4.362;2022-10-31T00:00:17;16.00;99.90
14517;DHT22;7344;50.864;4.362;2022-10-31T00:02:43;16.00;99.90
14517;DHT22;7344;50.864;4.362;2022-10-31T00:05:08;16.00;99.90
14517;DHT22;7344;50.864;4.362;2022-10-31T00:07:34;16.00;99.90
14517;DHT22;7344;50.864;4.362;2022-10-31T00:09:59;16.00;99.90
14517;DHT22;7344;50.864;4.362;2022-10-31T00:12:26;16.00;99.90
14517;DHT22;7344;50.864;4.362;2022-10-31T00:14:51;16.00;99.90
14517;DHT22;7344;50.864;4.362;2022-10-31T00:17:17;16.00;99.90
14517;DHT22;7344;50.864;4.362;2022-10-31T00:19:43;16.00;99.90
14517;DHT22;7344;50.864;4.362;2022-10-31T00:22:08;16.00;99.90
14517;DHT22;7344;50.864;4.362;2022-10-31T00:24:34;16.00;99.90
14517;DHT22;7344;50.864;4.362;2022-10-31T00:26:59;16.00;99.90
14517;DHT22;7344;50.864;4.362;2022-10-31T00:29:25;15.90;99.90
14517;DHT22;7344;50.864;4.362;2022-10-31T00:31:52;15.70;99.90
14517;DHT22;7344;50.864;4.362;2022-10-31T00:34:17;15.70;99.90
14517;DHT22;7344;50.864;4.362;2022-10-31T00:36:43;15.70;99.90
14517;DHT22;7344;50.864;4.362;2022-10-31T00:39:08;15.80;99.90
14517;DHT22;7344;50.864;4.362;2022-10-31T00:41:34;15.70;99.90
14517;DHT22;7344;50.864;4.362;2022-10-31T00:44:00;15.70;99.90
14517;DHT22;7344;50.864;4.362;2022-10-31T00:46:25;15.60;99.90
14517;DHT22;7344;50.864;4.362;2022-10-31T00:48:51;15.60;99.90
14517;DHT22;7344;50.864;4.362;2022-10-31T00:51:16;15.50;99.90
14517;DHT22;7344;50.864;4.362;2022-10-31T00:53:42;15.50;99.90
14517;DHT22;7344;50.864;4.362;2022-10-31T00:56:07;15.50;99.90
14517;DHT22;7344;50.864;4.362;2022-10-31T00:58:33;15.50;99.90
14517;DHT22;7344;50.864;4.362;2022-10-31T01:00:59;15.50;99.90
14517;DHT22;7344;50.864;4.362;2022-10-31T01:03:30;15.50;99.90
14517;DHT22;7344;50.864;4.362;2022-10-31T01:06:09;15.40;99.90
14517;DHT22;7344;50.864;4.362;2022-10-31T01:08:36;15.40;99.90
14517;DHT22;7344;50.864;4.362;2022-10-31T01:13:27;15.30;99.90
14517;DHT22;7344;50.864;4.362;2022-10-31T01:15:54;15.30;99.90
14517;DHT22;7344;50.864;4.362;2022-10-31T01:18:20;15.30;99.90
14517;DHT22;7344;50.864;4.362;2022-10-31T01:20:46;15.30;99.90
14517;DHT22;7344;50.864;4.362;2022-10-31T01:23:11;15.20;99.90
14517;DHT22;7344;50.864;4.362;2022-10-31T01:25:37;15.20;99.90
14517;DHT22;7344;50.864;4.362;2022-10-31T01:28:03;15.20;99.90
14517;DHT22;7344;50.864;4.362;2022-10-31T01:30:28;15.20;99.90
14517;DHT22;7344;50.864;4.362;2022-10-31T01:32:54;15.20;99.90
14517;DHT22;7344;50.864;4.362;2022-10-31T01:35:19;15.20;99.90
14517;DHT22;7344;50.864;4.362;2022-10-31T01:37:45;15.30;99.90
14517;DHT22;7344;50.864;4.362;2022-10-31T01:40:10;15.40;99.90
14517;DHT22;7344;50.864;4.362;2022-10-31T01:42:36;15.30;99.90
14517;DHT22;7344;50.864;4.362;2022-10-31T01:45:03;15.20;99.90
14517;DHT22;7344;50.864;4.362;2022-10-31T01:47:34;15.20;99.90
14517;DHT22;7344;50.864;4.362;2022-10-31T01:50:06;15.20;99.90
14517;DHT22;7344;50.864;4.362;2022-10-31T01:52:53;15.20;99.90
14517;DHT22;7344;50.864;4.362;2022-10-31T01:55:39;15.10;99.90
14517;DHT22;7344;50.864;4.362;2022-10-31T01:58:19;15.00;99.90
14517;DHT22;7344;50.864;4.362;2022-10-31T02:00:48;15.10;99.90
14517;DHT22;7344;50.864;4.362;2022-10-31T02:03:15;15.10;99.90
14517;DHT22;7344;50.864;4.362;2022-10-31T02:05:41;15.00;99.90
14517;DHT22;7344;50.864;4.362;2022-10-31T02:08:29;15.10;99.90
14517;DHT22;7344;50.864;4.362;2022-10-31T02:10:56;15.00;99.90
14517;DHT22;7344;50.864;4.362;2022-10-31T02:13:22;15.00;99.90
14517;DHT22;7344;50.864;4.362;2022-10-31T02:15:54;15.00;99.90
14517;DHT22;7344;50.864;4.362;2022-10-31T02:18:20;14.90;99.90
14517;DHT22;7344;50.864;4.362;2022-10-31T02:35:00;14.80;99.90
14517;DHT22;7344;50.864;4.362;2022-10-31T02:37:45;14.80;99.90
14517;DHT22;7344;50.864;4.362;2022-10-31T02:40:15;14.80;99.90
14517;DHT22;7344;50.864;4.362;2022-10-31T02:43:32;14.70;99.90
14517;DHT22;7344;50.864;4.362;2022-10-31T02:45:48;14.80;99.90
14517;DHT22;7344;50.864;4.362;2022-10-31T02:48:22;14.70;99.90
14517;DHT22;7344;50.864;4.362;2022-10-31T02:50:55;14.70;99.90
14517;DHT22;7344;50.864;4.362;2022-10-31T02:53:21;14.60;99.90
14517;DHT22;7344;50.864;4.362;2022-10-31T02:55:58;14.50;99.90
14517;DHT22;7344;50.864;4.362;2022-10-31T02:58:26;14.60;99.90
14517;DHT22;7344;50.864;4.362;2022-10-31T03:01:09;14.50;99.90
14517;DHT22;7344;50.864;4.362;2022-10-31T03:06:28;14.50;99.90
14517;DHT22;7344;50.864;4.362;2022-10-31T03:11:45;14.40;99.90
14517;DHT22;7344;50.864;4.362;2022-10-31T03:14:41;14.40;99.90
14517;DHT22;7344;50.864;4.362;2022-10-31T03:17:15;14.30;99.90
14517;DHT22;7344;50.864;4.362;2022-10-31T03:19:46;14.30;99.90
14517;DHT22;7344;50.864;4.362;2022-10-31T03:22:24;14.20;99.90
14517;DHT22;7344;50.864;4.362;2022-10-31T03:24:52;14.20;99.90
14517;DHT22;7344;50.864;4.362;2022-10-31T03:27:24;14.20;99.90
14517;DHT22;7344;50.864;4.362;2022-10-31T03:29:53;14.20;99.90
14517;DHT22;7344;50.864;4.362;2022-10-31T03:32:28;14.30;99.90
14517;DHT22;7344;50.864;4.362;2022-10-31T03:34:57;14.30;99.90
14517;DHT22;7344;50.864;4.362;2022-10-31T03:37:27;14.20;99.90
14517;DHT22;7344;50.864;4.362;2022-10-31T03:39:54;14.10;99.90
14517;DHT22;7344;50.864;4.362;2022-10-31T03:42:27;14.10;99.90
14517;DHT22;7344;50.864;4.362;2022-10-31T03:45:15;14.10;99.90
14517;DHT22;7344;50.864;4.362;2022-10-31T03:47:43;14.00;99.90
14517;DHT22;7344;50.864;4.362;2022-10-31T03:50:10;13.90;99.90
14517;DHT22;7344;50.864;4.362;2022-10-31T03:52:55;13.90;99.90
14517;DHT22;7344;50.864;4.362;2022-10-31T03:55:32;13.80;99.90
14517;DHT22;7344;50.864;4.362;2022-10-31T03:58:09;13.70;99.90
14517;DHT22;7344;50.864;4.362;2022-10-31T04:00:39;13.60;99.90
14517;DHT22;7344;50.864;4.362;2022-10-31T04:03:10;13.50;99.90
14517;DHT22;7344;50.864;4.362;2022-10-31T04:05:37;13.40;99.90
14517;DHT22;7344;50.864;4.362;2022-10-31T04:08:08;13.30;99.90
14517;DHT22;7344;50.864;4.362;2022-10-31T04:10:35;13.20;99.90
14517;DHT22;7344;50.864;4.362;2022-10-31T04:13:12;13.10;99.90
14517;DHT22;7344;50.864;4.362;2022-10-31T04:15:41;13.10;99.90
14517;DHT22;7344;50.864;4.362;2022-10-31T04:18:08;13.00;99.90
14517;DHT22;7344;50.864;4.362;2022-10-31T04:20:38;13.00;99.90
14517;DHT22;7344;50.864;4.362;2022-10-31T04:23:05;12.90;99.90
14517;DHT22;7344;50.864;4.362;2022-10-31T04:25:30;12.90;99.90
14517;DHT22;7344;50.864;4.362;2022-10-31T04:27:56;12.80;99.90
14517;DHT22;7344;50.864;4.362;2022-10-31T04:30:22;12.80;99.90
14517;DHT22;7344;50.864;4.362;2022-10-31T04:32:48;12.80;99.90
14517;DHT22;7344;50.864;4.362;2022-10-31T04:35:13;12.80;99.90
14517;DHT22;7344;50.864;4.362;2022-10-31T04:37:39;12.80;99.90
14517;DHT22;7344;50.864;4.362;2022-10-31T04:40:05;12.80;99.90
14517;DHT22;7344;50.864;4.362;2022-10-31T04:42:31;12.90;99.90
14517;DHT22;7344;50.864;4.362;2022-10-31T04:44:57;13.00;99.90
14517;DHT22;7344;50.864;4.362;2022-10-31T04:47:22;13.00;99.90
14517;DHT22;7344;50.864;4.362;2022-10-31T04:49:48;13.10;99.90
14517;DHT22;7344;50.864;4.362;2022-10-31T04:52:13;13.20;99.90
14517;DHT22;7344;50.864;4.362;2022-10-31T04:54:39;13.30;99.90
14517;DHT22;7344;50.864;4.362;2022-10-31T04:57:05;13.30;99.90
14517;DHT22;7344;50.864;4.362;2022-10-31T04:59:30;13.30;99.90
14517;DHT22;7344;50.864;4.362;2022-10-31T05:01:56;13.40;99.90
14517;DHT22;7344;50.864;4.362;2022-10-31T05:04:21;13.50;99.90
14517;DHT22;7344;50.864;4.362;2022-10-31T05:06:47;13.50;99.90
14517;DHT22;7344;50.864;4.362;2022-10-31T05:09:13;13.50;99.90
14517;DHT22;7344;50.864;4.362;2022-10-31T05:11:38;13.60;99.90
14517;DHT22;7344;50.864;4.362;2022-10-31T05:14:04;13.60;99.90
14517;DHT22;7344;50.864;4.362;2022-10-31T05:16:29;13.70;99.90
14517;DHT22;7344;50.864;4.362;2022-10-31T05:18:55;13.70;99.90
14517;DHT22;7344;50.864;4.362;2022-10-31T05:21:21;13.70;99.90
14517;DHT22;7344;50.864;4.362;2022-10-31T05:23:46;13.70;99.90
14517;DHT22;7344;50.864;4.362;2022-10-31T05:26:12;13.80;99.90
14517;DHT22;7344;50.864;4.362;2022-10-31T05:28:37;13.90;99.90
14517;DHT22;7344;50.864;4.362;2022-10-31T05:31:03;14.00;99.90
14517;DHT22;7344;50.864;4.362;2022-10-31T05:33:29;14.00;99.90
14517;DHT22;7344;50.864;4.362;2022-10-31T05:35:54;14.00;99.90
14517;DHT22;7344;50.864;4.362;2022-10-31T05:38:20;14.10;99.90
14517;DHT22;7344;50.864;4.362;2022-10-31T05:40:46;14.10;99.90
14517;DHT22;7344;50.864;4.362;2022-10-31T05:43:11;14.20;99.90
14517;DHT22;7344;50.864;4.362;2022-10-31T05:45:37;14.20;99.90
14517;DHT22;7344;50.864;4.362;2022-10-31T05:48:03;14.20;99.90
14517;DHT22;7344;50.864;4.362;2022-10-31T05:50:30;14.20;99.90
14517;DHT22;7344;50.864;4.362;2022-10-31T05:53:01;14.20;99.90
14517;DHT22;7344;50.864;4.362;2022-10-31T05:55:28;14.10;99.90
14517;DHT22;7344;50.864;4.362;2022-10-31T05:57:54;14.10;99.90
14517;DHT22;7344;50.864;4.362;2022-10-31T06:00:20;14.20;99.90
14517;DHT22;7344;50.864;4.362;2022-10-31T06:02:46;14.20;99.90
14517;DHT22;7344;50.864;4.362;2022-10-31T06:05:12;14.20;99.90
14517;DHT22;7344;50.864;4.362;2022-10-31T06:07:38;14.20;99.90
14517;DHT22;7344;50.864;4.362;2022-10-31T06:10:06;14.20;99.90
14517;DHT22;7344;50.864;4.362;2022-10-31T06:12:33;14.20;99.90
14517;DHT22;7344;50.864;4.362;2022-10-31T06:15:06;14.20;99.90
14517;DHT22;7344;50.864;4.362;2022-10-31T06:17:35;14.20;99.90
14517;DHT22;7344;50.864;4.362;2022-10-31T06:20:01;14.20;99.90
14517;DHT22;7344;50.864;4.362;2022-10-31T06:22:27;14.20;99.90
14517;DHT22;7344;50.864;4.362;2022-10-31T06:24:52;14.30;99.90
14517;DHT22;7344;50.864;4.362;2022-10-31T06:27:19;14.30;99.90
14517;DHT22;7344;50.864;4.362;2022-10-31T06:29:45;14.30;99.90
14517;DHT22;7344;50.864;4.362;2022-10-31T06:32:14;14.40;99.90
14517;DHT22;7344;50.864;4.362;2022-10-31T06:34:40;14.50;99.90
14517;DHT22;7344;50.864;4.362;2022-10-31T06:37:10;14.50;99.90
14517;DHT22;7344;50.864;4.362;2022-10-31T06:39:36;14.60;99.90
14517;DHT22;7344;50.864;4.362;2022-10-31T06:42:02;14.60;99.90
14517;DHT22;7344;50.864;4.362;2022-10-31T06:44:27;14.70;99.90
14517;DHT22;7344;50.864;4.362;2022-10-31T06:46:53;14.70;99.90
14517;DHT22;7344;50.864;4.362;2022-10-31T06:49:19;14.60;99.90
14517;DHT22;7344;50.864;4.362;2022-10-31T06:51:47;14.60;99.90
14517;DHT22;7344;50.864;4.362;2022-10-31T06:54:13;14.50;99.90
14517;DHT22;7344;50.864;4.362;2022-10-31T06:56:39;14.50;99.90
14517;DHT22;7344;50.864;4.362;2022-10-31T06:59:04;14.50;99.90
14517;DHT22;7344;50.864;4.362;2022-10-31T07:01:30;14.60;99.90
14517;DHT22;7344;50.864;4.362;2022-10-31T07:03:55;14.60;99.90
14517;DHT22;7344;50.864;4.362;2022-10-31T07:06:21;14.60;99.90
14517;DHT22;7344;50.864;4.362;2022-10-31T07:08:47;14.60;99.90
14517;DHT22;7344;50.864;4.362;2022-10-31T07:11:12;14.80;99.90
14517;DHT22;7344;50.864;4.362;2022-10-31T07:13:38;14.80;99.90
14517;DHT22;7344;50.864;4.362;2022-10-31T07:16:05;14.80;99.90
14517;DHT22;7344;50.864;4.362;2022-10-31T07:18:32;14.80;99.90
14517;DHT22;7344;50.864;4.362;2022-10-31T07:20:58;14.80;99.90
14517;DHT22;7344;50.864;4.362;2022-10-31T07:23:24;14.80;99.90
14517;DHT22;7344;50.864;4.362;2022-10-31T07:25:57;14.80;99.90
14517;DHT22;7344;50.864;4.362;2022-10-31T07:28:24;14.80;99.90
14517;DHT22;7344;50.864;4.362;2022-10-31T07:30:53;14.70;99.90
14517;DHT22;7344;50.864;4.362;2022-10-31T07:33:19;14.60;99.90
14517;DHT22;7344;50.864;4.362;2022-10-31T07:35:44;14.60;99.90
14517;DHT22;7344;50.864;4.362;2022-10-31T07:38:11;14.60;99.90
14517;DHT22;7344;50.864;4.362;2022-10-31T07:40:38;14.70;99.90
14517;DHT22;7344;50.864;4.362;2022-10-31T07:43:04;14.80;99.90
14517;DHT22;7344;50.864;4.362;2022-10-31T07:45:29;14.70;99.90
14517;DHT22;7344;50.864;4.362;2022-10-31T07:47:55;14.70;99.90
14517;DHT22;7344;50.864;4.362;2022-10-31T07:50:26;14.70;99.90
14517;DHT22;7344;50.864;4.362;2022-10-31T07:53:08;14.70;99.90
14517;DHT22;7344;50.864;4.362;2022-10-31T07:55:34;14.80;99.90
14517;DHT22;7344;50.864;4.362;2022-10-31T07:58:12;14.80;99.90
14517;DHT22;7344;50.864;4.362;2022-10-31T08:00:39;14.80;99.90
14517;DHT22;7344;50.864;4.362;2022-10-31T08:03:06;14.90;99.90
14517;DHT22;7344;50.864;4.362;2022-10-31T08:05:32;14.90;99.90
14517;DHT22;7344;50.864;4.362;2022-10-31T08:07:58;14.90;99.90
14517;DHT22;7344;50.864;4.362;2022-10-31T08:10:25;14.90;99.90
14517;DHT22;7344;50.864;4.362;2022-10-31T08:13:06;15.00;99.90
14517;DHT22;7344;50.864;4.362;2022-10-31T08:15:32;15.00;99.90
14517;DHT22;7344;50.864;4.362;2022-10-31T08:17:59;15.10;99.90
14517;DHT22;7344;50.864;4.362;2022-10-31T08:20:25;15.20;99.90
14517;DHT22;7344;50.864;4.362;2022-10-31T08:22:58;15.10;99.90
14517;DHT22;7344;50.864;4.362;2022-10-31T08:25:26;15.10;99.90
14517;DHT22;7344;50.864;4.362;2022-10-31T08:27:53;15.20;99.90
14517;DHT22;7344;50.864;4.362;2022-10-31T08:30:20;15.20;99.90
14517;DHT22;7344;50.864;4.362;2022-10-31T08:32:46;15.10;99.90
14517;DHT22;7344;50.864;4.362;2022-10-31T08:35:12;15.20;99.90
14517;DHT22;7344;50.864;4.362;2022-10-31T08:37:38;15.20;99.90
14517;DHT22;7344;50.864;4.362;2022-10-31T08:40:04;15.30;99.90
14517;DHT22;7344;50.864;4.362;2022-10-31T08:42:30;15.10;99.90
14517;DHT22;7344;50.864;4.362;2022-10-31T08:44:56;15.00;99.90
14517;DHT22;7344;50.864;4.362;2022-10-31T08:47:21;14.90;99.90
14517;DHT22;7344;50.864;4.362;2022-10-31T08:49:47;14.90;99.90
14517;DHT22;7344;50.864;4.362;2022-10-31T08:52:12;14.90;99.90
14517;DHT22;7344;50.864;4.362;2022-10-31T08:54:40;15.00;99.90
14517;DHT22;7344;50.864;4.362;2022-10-31T08:57:05;15.00;99.90
14517;DHT22;7344;50.864;4.362;2022-10-31T08:59:31;15.20;99.90
14517;DHT22;7344;50.864;4.362;2022-10-31T09:01:56;15.40;99.90
14517;DHT22;7344;50.864;4.362;2022-10-31T09:04:22;15.70;99.90
14517;DHT22;7344;50.864;4.362;2022-10-31T09:06:48;15.90;99.90
14517;DHT22;7344;50.864;4.362;2022-10-31T09:09:13;16.00;99.90
14517;DHT22;7344;50.864;4.362;2022-10-31T09:11:39;16.20;99.90
14517;DHT22;7344;50.864;4.362;2022-10-31T09:14:04;16.30;99.90
14517;DHT22;7344;50.864;4.362;2022-10-31T09:16:30;16.30;99.90
14517;DHT22;7344;50.864;4.362;2022-10-31T09:18:55;16.40;99.90
14517;DHT22;7344;50.864;4.362;2022-10-31T09:21:21;16.50;99.90
14517;DHT22;7344;50.864;4.362;2022-10-31T09:23:47;16.50;99.90
14517;DHT22;7344;50.864;4.362;2022-10-31T09:26:12;16.50;99.90
14517;DHT22;7344;50.864;4.362;2022-10-31T09:28:38;16.30;99.90
14517;DHT22;7344;50.864;4.362;2022-10-31T09:31:04;16.30;99.90
14517;DHT22;7344;50.864;4.362;2022-10-31T09:33:29;16.40;99.90
14517;DHT22;7344;50.864;4.362;2022-10-31T09:35:55;16.40;99.90
14517;DHT22;7344;50.864;4.362;2022-10-31T09:38:23;16.60;99.90
14517;DHT22;7344;50.864;4.362;2022-10-31T09:47:04;16.90;99.90
14517;DHT22;7344;50.864;4.362;2022-10-31T09:49:35;16.90;99.90
14517;DHT22;7344;50.864;4.362;2022-10-31T09:54:58;17.10;99.90
14517;DHT22;7344;50.864;4.362;2022-10-31T09:57:28;17.00;99.90
14517;DHT22;7344;50.864;4.362;2022-10-31T09:59:55;16.90;99.90
14517;DHT22;7344;50.864;4.362;2022-10-31T10:02:35;16.90;99.90
14517;DHT22;7344;50.864;4.362;2022-10-31T10:05:11;17.10;99.90
14517;DHT22;7344;50.864;4.362;2022-10-31T10:16:14;17.20;99.90
14517;DHT22;7344;50.864;4.362;2022-10-31T10:18:57;17.20;99.90
14517;DHT22;7344;50.864;4.362;2022-10-31T10:21:36;17.10;99.90
14517;DHT22;7344;50.864;4.362;2022-10-31T10:29:50;16.80;99.90
14517;DHT22;7344;50.864;4.362;2022-10-31T10:32:50;17.00;99.90
14517;DHT22;7344;50.864;4.362;2022-10-31T10:37:51;17.30;99.90
14517;DHT22;7344;50.864;4.362;2022-10-31T10:40:26;17.20;99.90
14517;DHT22;7344;50.864;4.362;2022-10-31T10:46:19;17.30;99.90
14517;DHT22;7344;50.864;4.362;2022-10-31T10:57:44;17.10;99.90
14517;DHT22;7344;50.864;4.362;2022-10-31T11:00:43;17.10;99.90
14517;DHT22;7344;50.864;4.362;2022-10-31T11:03:11;16.90;99.90
14517;DHT22;7344;50.864;4.362;2022-10-31T11:05:51;17.10;99.90
14517;DHT22;7344;50.864;4.362;2022-10-31T11:08:31;17.20;99.90
14517;DHT22;7344;50.864;4.362;2022-10-31T11:11:02;17.50;99.90
14517;DHT22;7344;50.864;4.362;2022-10-31T11:13:30;17.70;99.90
14517;DHT22;7344;50.864;4.362;2022-10-31T11:16:32;17.70;99.90
14517;DHT22;7344;50.864;4.362;2022-10-31T11:19:07;17.50;99.90
14517;DHT22;7344;50.864;4.362;2022-10-31T11:21:34;17.20;99.90
14517;DHT22;7344;50.864;4.362;2022-10-31T11:26:35;17.10;99.90
14517;DHT22;7344;50.864;4.362;2022-10-31T11:29:04;17.20;99.90
14517;DHT22;7344;50.864;4.362;2022-10-31T11:31:31;17.20;99.90
14517;DHT22;7344;50.864;4.362;2022-10-31T11:34:00;17.10;99.90
14517;DHT22;7344;50.864;4.362;2022-10-31T11:36:30;17.20;99.90
14517;DHT22;7344;50.864;4.362;2022-10-31T11:38:58;17.40;99.90
14517;DHT22;7344;50.864;4.362;2022-10-31T11:41:35;17.40;99.90
14517;DHT22;7344;50.864;4.362;2022-10-31T11:44:12;17.30;99.90
14517;DHT22;7344;50.864;4.362;2022-10-31T11:46:46;17.50;99.90
14517;DHT22;7344;50.864;4.362;2022-10-31T11:49:22;17.60;99.90
14517;DHT22;7344;50.864;4.362;2022-10-31T11:51:52;17.40;99.90
14517;DHT22;7344;50.864;4.362;2022-10-31T11:54:23;17.50;99.90
14517;DHT22;7344;50.864;4.362;2022-10-31T11:56:49;17.60;99.90
14517;DHT22;7344;50.864;4.362;2022-10-31T11:59:30;17.80;99.90
14517;DHT22;7344;50.864;4.362;2022-10-31T12:01:58;17.90;99.90
14517;DHT22;7344;50.864;4.362;2022-10-31T12:04:49;18.00;99.90
14517;DHT22;7344;50.864;4.362;2022-10-31T12:07:16;18.00;99.90
14517;DHT22;7344;50.864;4.362;2022-10-31T12:09:42;17.90;99.90
14517;DHT22;7344;50.864;4.362;2022-10-31T12:15:22;17.90;99.90
14517;DHT22;7344;50.864;4.362;2022-10-31T12:33:59;19.40;99.90
14517;DHT22;7344;50.864;4.362;2022-10-31T12:48:07;19.00;99.90
14517;DHT22;7344;50.864;4.362;2022-10-31T12:53:35;19.00;99.90
14517;DHT22;7344;50.864;4.362;2022-10-31T12:56:16;19.10;99.90
14517;DHT22;7344;50.864;4.362;2022-10-31T12:58:59;19.20;99.90
14517;DHT22;7344;50.864;4.362;2022-10-31T13:01:36;19.20;99.90
14517;DHT22;7344;50.864;4.362;2022-10-31T13:06:50;19.60;99.90
14517;DHT22;7344;50.864;4.362;2022-10-31T13:09:20;19.80;99.90
14517;DHT22;7344;50.864;4.362;2022-10-31T13:12:01;19.90;99.90
14517;DHT22;7344;50.864;4.362;2022-10-31T13:14:40;20.00;99.90
14517;DHT22;7344;50.864;4.362;2022-10-31T13:17:16;20.10;99.90
14517;DHT22;7344;50.864;4.362;2022-10-31T13:19:45;19.80;99.90
14517;DHT22;7344;50.864;4.362;2022-10-31T13:22:18;19.70;99.90
14517;DHT22;7344;50.864;4.362;2022-10-31T13:27:56;19.40;99.90
14517;DHT22;7344;50.864;4.362;2022-10-31T13:30:33;19.50;99.90
14517;DHT22;7344;50.864;4.362;2022-10-31T13:35:51;19.60;99.90
14517;DHT22;7344;50.864;4.362;2022-10-31T13:40:59;19.50;99.90
14517;DHT22;7344;50.864;4.362;2022-10-31T13:43:37;19.60;99.90
14517;DHT22;7344;50.864;4.362;2022-10-31T13:46:25;19.20;99.90
14517;DHT22;7344;50.864;4.362;2022-10-31T13:48:51;19.10;99.90
14517;DHT22;7344;50.864;4.362;2022-10-31T13:51:25;19.00;99.90
14517;DHT22;7344;50.864;4.362;2022-10-31T13:54:22;19.00;99.90
14517;DHT22;7344;50.864;4.362;2022-10-31T13:56:51;19.00;99.90
14517;DHT22;7344;50.864;4.362;2022-10-31T13:59:20;19.00;99.90
14517;DHT22;7344;50.864;4.362;2022-10-31T14:01:49;19.00;99.90
14517;DHT22;7344;50.864;4.362;2022-10-31T14:04:37;19.00;99.90
14517;DHT22;7344;50.864;4.362;2022-10-31T14:07:08;18.90;99.90
14517;DHT22;7344;50.864;4.362;2022-10-31T14:12:21;18.90;99.90
14517;DHT22;7344;50.864;4.362;2022-10-31T14:14:50;19.00;99.90
14517;DHT22;7344;50.864;4.362;2022-10-31T14:17:25;19.00;99.90
14517;DHT22;7344;50.864;4.362;2022-10-31T14:22:37;19.10;99.90
14517;DHT22;7344;50.864;4.362;2022-10-31T14:27:50;19.30;99.90
14517;DHT22;7344;50.864;4.362;2022-10-31T14:30:19;19.30;99.90
14517;DHT22;7344;50.864;4.362;2022-10-31T14:32:59;19.40;99.90
14517;DHT22;7344;50.864;4.362;2022-10-31T14:35:35;19.40;99.90
14517;DHT22;7344;50.864;4.362;2022-10-31T14:38:20;19.50;99.90
14517;DHT22;7344;50.864;4.362;2022-10-31T14:46:01;19.50;99.90
14517;DHT22;7344;50.864;4.362;2022-10-31T14:51:01;19.50;99.90
14517;DHT22;7344;50.864;4.362;2022-10-31T14:53:48;19.60;99.90
14517;DHT22;7344;50.864;4.362;2022-10-31T14:59:18;19.50;99.90
14517;DHT22;7344;50.864;4.362;2022-10-31T15:02:07;19.40;99.90
14517;DHT22;7344;50.864;4.362;2022-10-31T15:04:35;19.40;99.90
14517;DHT22;7344;50.864;4.362;2022-10-31T15:07:30;19.40;99.90
14517;DHT22;7344;50.864;4.362;2022-10-31T15:09:58;19.50;99.90
14517;DHT22;7344;50.864;4.362;2022-10-31T15:12:31;19.40;99.90
14517;DHT22;7344;50.864;4.362;2022-10-31T15:15:10;19.30;99.90
14517;DHT22;7344;50.864;4.362;2022-10-31T15:17:36;19.30;99.90
14517;DHT22;7344;50.864;4.362;2022-10-31T15:20:10;19.20;99.90
14517;DHT22;7344;50.864;4.362;2022-10-31T15:22:36;19.20;99.90
14517;DHT22;7344;50.864;4.362;2022-10-31T15:25:02;19.10;99.90
14517;DHT22;7344;50.864;4.362;2022-10-31T15:27:27;19.10;99.90
14517;DHT22;7344;50.864;4.362;2022-10-31T15:29:56;19.00;99.90
14517;DHT22;7344;50.864;4.362;2022-10-31T15:32:27;18.80;99.90
14517;DHT22;7344;50.864;4.362;2022-10-31T15:34:54;18.70;99.90
14517;DHT22;7344;50.864;4.362;2022-10-31T15:37:23;18.70;99.90
14517;DHT22;7344;50.864;4.362;2022-10-31T15:39:50;18.70;99.90
14517;DHT22;7344;50.864;4.362;2022-10-31T15:45:01;18.60;99.90
14517;DHT22;7344;50.864;4.362;2022-10-31T15:47:29;18.50;99.90
14517;DHT22;7344;50.864;4.362;2022-10-31T15:49:57;18.40;99.90
14517;DHT22;7344;50.864;4.362;2022-10-31T15:55:18;18.40;99.90
14517;DHT22;7344;50.864;4.362;2022-10-31T15:57:47;18.40;99.90
14517;DHT22;7344;50.864;4.362;2022-10-31T16:00:30;18.30;99.90
14517;DHT22;7344;50.864;4.362;2022-10-31T16:05:52;18.30;99.90
14517;DHT22;7344;50.864;4.362;2022-10-31T16:08:25;18.30;99.90
14517;DHT22;7344;50.864;4.362;2022-10-31T16:10:52;18.30;99.90
14517;DHT22;7344;50.864;4.362;2022-10-31T16:13:18;18.30;99.90
14517;DHT22;7344;50.864;4.362;2022-10-31T16:15:50;18.20;99.90
14517;DHT22;7344;50.864;4.362;2022-10-31T16:18:17;18.20;99.90
14517;DHT22;7344;50.864;4.362;2022-10-31T16:20:48;18.20;99.90
14517;DHT22;7344;50.864;4.362;2022-10-31T16:23:17;18.10;99.90
14517;DHT22;7344;50.864;4.362;2022-10-31T16:25:43;18.10;99.90
14517;DHT22;7344;50.864;4.362;2022-10-31T16:28:21;18.00;99.90
14517;DHT22;7344;50.864;4.362;2022-10-31T16:30:52;17.90;99.90
14517;DHT22;7344;50.864;4.362;2022-10-31T16:35:54;17.90;99.90
14517;DHT22;7344;50.864;4.362;2022-10-31T16:38:21;17.90;99.90
14517;DHT22;7344;50.864;4.362;2022-10-31T16:40:47;17.80;99.90
14517;DHT22;7344;50.864;4.362;2022-10-31T16:43:15;17.80;99.90
14517;DHT22;7344;50.864;4.362;2022-10-31T16:45:51;17.80;99.90
14517;DHT22;7344;50.864;4.362;2022-10-31T16:48:20;17.70;99.90
14517;DHT22;7344;50.864;4.362;2022-10-31T16:50:48;17.70;99.90
14517;DHT22;7344;50.864;4.362;2022-10-31T16:53:15;17.70;99.90
14517;DHT22;7344;50.864;4.362;2022-10-31T16:55:43;17.70;99.90
14517;DHT22;7344;50.864;4.362;2022-10-31T16:58:24;17.60;99.90
14517;DHT22;7344;50.864;4.362;2022-10-31T17:00:51;17.60;99.90
14517;DHT22;7344;50.864;4.362;2022-10-31T17:03:17;17.60;99.90
14517;DHT22;7344;50.864;4.362;2022-10-31T17:05:43;17.60;99.90
14517;DHT22;7344;50.864;4.362;2022-10-31T17:08:08;17.50;99.90
14517;DHT22;7344;50.864;4.362;2022-10-31T17:10:35;17.60;99.90
14517;DHT22;7344;50.864;4.362;2022-10-31T17:13:02;17.60;99.90
14517;DHT22;7344;50.864;4.362;2022-10-31T17:15:37;17.60;99.90
14517;DHT22;7344;50.864;4.362;2022-10-31T17:18:04;17.60;99.90
14517;DHT22;7344;50.864;4.362;2022-10-31T17:20:30;17.70;99.90
14517;DHT22;7344;50.864;4.362;2022-10-31T17:22:57;17.70;99.90
14517;DHT22;7344;50.864;4.362;2022-10-31T17:25:25;17.80;99.90
14517;DHT22;7344;50.864;4.362;2022-10-31T17:27:51;17.80;99.90
14517;DHT22;7344;50.864;4.362;2022-10-31T17:30:18;17.90;99.90
14517;DHT22;7344;50.864;4.362;2022-10-31T17:32:45;17.90;99.90
14517;DHT22;7344;50.864;4.362;2022-10-31T17:35:12;17.90;99.90
14517;DHT22;7344;50.864;4.362;2022-10-31T17:37:39;18.00;99.90
14517;DHT22;7344;50.864;4.362;2022-10-31T17:40:08;18.00;99.90
14517;DHT22;7344;50.864;4.362;2022-10-31T17:42:34;18.00;99.90
14517;DHT22;7344;50.864;4.362;2022-10-31T17:44:59;18.00;99.90
14517;DHT22;7344;50.864;4.362;2022-10-31T17:47:25;17.90;99.90
14517;DHT22;7344;50.864;4.362;2022-10-31T17:49:50;17.90;99.90
14517;DHT22;7344;50.864;4.362;2022-10-31T17:52:18;17.90;99.90
14517;DHT22;7344;50.864;4.362;2022-10-31T17:54:43;17.90;99.90
14517;DHT22;7344;50.864;4.362;2022-10-31T17:57:09;17.90;99.90
14517;DHT22;7344;50.864;4.362;2022-10-31T17:59:35;17.90;99.90
14517;DHT22;7344;50.864;4.362;2022-10-31T18:02:00;17.90;99.90
14517;DHT22;7344;50.864;4.362;2022-10-31T18:04:27;17.80;99.90
14517;DHT22;7344;50.864;4.362;2022-10-31T18:06:53;17.80;99.90
14517;DHT22;7344;50.864;4.362;2022-10-31T18:09:19;17.80;99.90
14517;DHT22;7344;50.864;4.362;2022-10-31T18:11:44;17.80;99.90
14517;DHT22;7344;50.864;4.362;2022-10-31T18:14:10;17.80;99.90
14517;DHT22;7344;50.864;4.362;2022-10-31T18:16:36;17.80;99.90